KBFL/BFL METAR and TAF weather

Enter ICAO airport designator
Station Type Date Time Source
KBFL METAR 2020/09/15 05:54 UTC NOAA

KBFL 150554Z AUTO 00000KT 2 1/2SM HZ CLR 27/12 A2998 RMK AO2 SLP147 T02670122 10333 20261 51020


Station Type Date Time Source
KBFL Decoded METAR 2020/09/15 05:54 UTC NOAA

BAKERSFIELD MEADOWS FIELD, CA, United States (KBFL) 35-26N 119-03W 151M
Sep 15, 2020 - 01:54 AM EDT / 2020.09.15 0554 UTC
Wind: Calm:0
Visibility: 2 1/2 mile(s):0
Sky conditions: clear
Weather: haze
Temperature: 80.1 F (26.7 C)
Dew Point: 54.0 F (12.2 C)
Relative Humidity: 40%
Pressure (altimeter): 29.98 in. Hg (1015 hPa)
Pressure tendency: 0.06 inches (2.0 hPa) higher than three hours ago
ob: KBFL 150554Z AUTO 00000KT 2 1/2SM HZ CLR 27/12 A2998 RMK AO2 SLP147 T02670122 10333 20261 51020
cycle: 6

Station Type Date Time Source
KBFL TAF 2020/09/19 18:22 UTC NOAA

TAF KBFL 191720Z 1918/2018 30008KT P6SM SKC
FM200300 VRB03KT P6SM SKC
AMD NOT SKED

Example: see airport list